createdAt,value
2023-05-17T00:01:45.549Z,28.50
2023-05-17T00:04:22.511Z,30.20
2023-05-17T00:07:00.029Z,32.10
2023-05-17T00:09:34.881Z,32.80
2023-05-17T00:12:09.345Z,32.80
2023-05-17T00:14:46.296Z,32.30
2023-05-17T00:17:21.786Z,32.40
2023-05-17T00:19:57.982Z,31.30
2023-05-17T00:22:36.008Z,31.10
2023-05-17T00:25:12.209Z,31.10
2023-05-17T00:27:58.769Z,30.80
2023-05-17T00:30:37.359Z,31.30
2023-05-17T00:33:15.253Z,32.60
2023-05-17T00:35:51.444Z,32.70
2023-05-17T00:38:34.975Z,33.00
2023-05-17T00:41:13.129Z,32.20
2023-05-17T00:43:50.476Z,32.80
2023-05-17T00:46:37.872Z,34.80
2023-05-17T00:49:14.612Z,36.00
2023-05-17T00:51:50.893Z,34.20
2023-05-17T00:54:26.191Z,33.90
2023-05-17T00:57:06.135Z,33.60
2023-05-17T00:59:43.989Z,32.80
2023-05-17T01:02:23.127Z,31.60
2023-05-17T01:05:02.198Z,30.80
2023-05-17T01:07:35.664Z,30.70
2023-05-17T01:10:16.638Z,30.20
2023-05-17T01:13:08.897Z,30.00
2023-05-17T01:15:47.240Z,30.20
2023-05-17T01:18:35.834Z,30.20
2023-05-17T01:21:29.760Z,29.80
2023-05-17T01:24:21.186Z,30.00
2023-05-17T01:26:59.474Z,29.80
2023-05-17T01:29:35.724Z,29.80
2023-05-17T01:32:10.920Z,29.80
2023-05-17T01:34:47.282Z,30.10
2023-05-17T01:37:23.150Z,30.00
2023-05-17T01:39:59.569Z,30.10
2023-05-17T01:42:37.435Z,30.30
2023-05-17T01:45:17.195Z,30.50
2023-05-17T01:48:03.770Z,30.80
2023-05-17T01:50:39.913Z,30.70
2023-05-17T01:53:24.671Z,30.80
2023-05-17T01:56:01.153Z,30.90
2023-05-17T01:58:42.022Z,30.60
2023-05-17T02:01:19.443Z,31.10
2023-05-17T02:03:58.196Z,31.20
2023-05-17T02:06:35.519Z,31.70
2023-05-17T02:09:11.839Z,32.10
2023-05-17T02:11:48.019Z,32.50
2023-05-17T02:14:27.124Z,33.00
2023-05-17T02:17:07.141Z,33.30
2023-05-17T02:19:44.411Z,33.20
2023-05-17T02:22:19.012Z,33.70
2023-05-17T02:24:56.672Z,34.20
2023-05-17T02:27:35.483Z,34.10
2023-05-17T02:30:24.804Z,33.80
2023-05-17T02:33:07.016Z,33.30
2023-05-17T02:35:41.815Z,33.30
2023-05-17T02:38:19.102Z,33.50
2023-05-17T02:40:54.503Z,33.60
2023-05-17T02:43:38.013Z,33.30
2023-05-17T02:46:16.977Z,33.20
2023-05-17T02:48:51.580Z,32.70
2023-05-17T02:51:25.952Z,32.60
2023-05-17T02:54:00.117Z,32.30
2023-05-17T02:56:38.867Z,32.40
2023-05-17T02:59:17.185Z,32.50
2023-05-17T03:01:59.764Z,32.30
2023-05-17T03:04:36.934Z,32.10
2023-05-17T03:07:11.907Z,32.10
2023-05-17T03:09:45.979Z,31.90
2023-05-17T03:12:19.716Z,31.70
2023-05-17T03:14:57.953Z,31.60
2023-05-17T03:17:34.685Z,31.50
2023-05-17T03:20:10.114Z,31.50
2023-05-17T03:22:44.922Z,31.40
2023-05-17T03:25:20.098Z,31.10
2023-05-17T03:28:01.367Z,30.90
2023-05-17T03:30:45.388Z,30.80
2023-05-17T03:33:22.588Z,30.80
2023-05-17T03:35:58.966Z,30.30
2023-05-17T03:38:42.085Z,30.40
2023-05-17T03:41:16.860Z,30.50
2023-05-17T03:43:53.976Z,30.40
2023-05-17T03:46:27.950Z,30.40
2023-05-17T03:49:07.204Z,30.20
2023-05-17T03:51:44.043Z,29.70
2023-05-17T03:54:23.262Z,29.80
2023-05-17T03:56:58.220Z,29.80
2023-05-17T03:59:32.708Z,30.10
2023-05-17T04:02:10.095Z,29.90
2023-05-17T04:04:55.427Z,29.80
2023-05-17T04:07:32.612Z,29.70
2023-05-17T04:10:10.788Z,29.70
2023-05-17T04:12:45.974Z,30.00
2023-05-17T04:15:20.099Z,30.10
2023-05-17T04:17:56.283Z,30.20
2023-05-17T04:20:36.734Z,30.50
2023-05-17T04:23:15.822Z,30.50
2023-05-17T04:26:00.333Z,30.30
2023-05-17T04:28:40.278Z,30.30
2023-05-17T04:31:14.686Z,30.50
2023-05-17T04:33:50.424Z,30.20
2023-05-17T04:36:27.029Z,30.20
2023-05-17T04:39:07.554Z,30.10
2023-05-17T04:41:43.816Z,30.10
2023-05-17T04:44:23.923Z,30.10
2023-05-17T04:47:01.189Z,30.00
2023-05-17T04:49:35.316Z,30.50
2023-05-17T04:52:19.366Z,30.70
2023-05-17T04:54:56.038Z,31.20
2023-05-17T04:57:30.371Z,31.20
2023-05-17T05:00:13.528Z,31.10
2023-05-17T05:02:58.515Z,31.30
2023-05-17T05:05:49.615Z,31.50
2023-05-17T05:08:28.232Z,31.20
2023-05-17T05:11:05.630Z,31.20
2023-05-17T05:13:43.234Z,31.60
2023-05-17T05:16:19.931Z,31.80
2023-05-17T05:19:04.478Z,32.00
2023-05-17T05:21:43.010Z,32.10
2023-05-17T05:24:21.409Z,32.20
2023-05-17T05:26:56.455Z,32.00
2023-05-17T05:29:35.245Z,32.20
2023-05-17T05:32:10.287Z,32.70
2023-05-17T05:34:50.842Z,32.90
2023-05-17T05:37:24.298Z,32.80
2023-05-17T05:40:05.007Z,33.10
2023-05-17T05:42:42.378Z,33.10
2023-05-17T05:45:21.978Z,32.90
2023-05-17T05:48:01.639Z,32.90
2023-05-17T05:50:34.800Z,32.80
2023-05-17T05:53:29.113Z,32.90
2023-05-17T05:56:07.147Z,32.80
2023-05-17T05:58:42.591Z,33.30
2023-05-17T06:01:20.199Z,33.50
2023-05-17T06:03:58.685Z,33.60
2023-05-17T06:06:36.844Z,33.70
2023-05-17T06:09:14.445Z,33.70
2023-05-17T06:11:53.456Z,33.50
2023-05-17T06:14:29.001Z,33.40
2023-05-17T06:17:03.054Z,33.60
2023-05-17T06:19:40.389Z,33.70
2023-05-17T06:22:17.525Z,33.60
2023-05-17T06:24:57.433Z,32.90
2023-05-17T06:27:45.581Z,32.60
2023-05-17T06:30:27.095Z,33.10
2023-05-17T06:33:04.161Z,33.30
2023-05-17T06:35:54.341Z,33.40
2023-05-17T06:38:32.393Z,33.20
2023-05-17T06:41:10.787Z,33.30
2023-05-17T06:43:49.928Z,33.00
2023-05-17T06:46:27.135Z,33.10
2023-05-17T06:49:05.687Z,33.20
2023-05-17T06:51:40.134Z,33.20
2023-05-17T06:54:16.554Z,33.10
2023-05-17T06:56:52.385Z,33.20
2023-05-17T06:59:32.504Z,33.10
2023-05-17T07:02:16.161Z,32.90
2023-05-17T07:04:55.171Z,33.10
2023-05-17T07:07:30.372Z,33.40
2023-05-17T07:10:05.562Z,33.40
2023-05-17T07:12:40.166Z,33.20
2023-05-17T07:15:20.938Z,33.30
2023-05-17T07:17:57.317Z,33.10
2023-05-17T07:20:34.878Z,33.10
2023-05-17T07:23:15.739Z,32.90
2023-05-17T07:25:53.130Z,32.90
2023-05-17T07:28:30.195Z,32.90
2023-05-17T07:31:16.144Z,33.00
2023-05-17T07:33:52.877Z,33.20
2023-05-17T07:36:35.377Z,33.10
2023-05-17T07:39:13.608Z,33.20
2023-05-17T07:41:53.488Z,33.20
2023-05-17T07:44:33.135Z,33.30
2023-05-17T07:47:13.147Z,33.10
2023-05-17T07:49:48.527Z,33.00
2023-05-17T07:52:23.306Z,33.20
2023-05-17T07:55:03.464Z,33.20
2023-05-17T07:57:45.756Z,33.30
2023-05-17T08:00:22.373Z,33.30
2023-05-17T08:03:03.834Z,32.90
2023-05-17T08:05:42.414Z,32.70
2023-05-17T08:08:16.663Z,32.70
2023-05-17T08:10:54.921Z,32.20
2023-05-17T08:13:33.842Z,32.10
2023-05-17T08:16:18.021Z,32.00
2023-05-17T08:19:05.182Z,32.20
2023-05-17T08:21:40.027Z,32.30
2023-05-17T08:24:16.466Z,32.20
2023-05-17T08:26:52.700Z,32.10
2023-05-17T08:29:41.124Z,31.70
2023-05-17T08:32:20.721Z,31.40
2023-05-17T08:34:59.882Z,31.50
2023-05-17T08:37:37.278Z,31.50
2023-05-17T08:40:11.774Z,31.80
2023-05-17T08:42:47.156Z,32.20
2023-05-17T08:45:24.948Z,32.00
2023-05-17T08:48:00.612Z,32.00
2023-05-17T08:50:42.351Z,31.90
2023-05-17T08:53:34.206Z,31.70
2023-05-17T08:56:14.652Z,31.40
2023-05-17T08:58:56.974Z,31.80
2023-05-17T09:01:42.921Z,31.60
2023-05-17T09:04:17.945Z,31.90
2023-05-17T09:06:58.193Z,32.30
2023-05-17T09:09:36.677Z,32.40
2023-05-17T09:12:16.363Z,32.70
2023-05-17T09:14:52.095Z,32.80
2023-05-17T09:17:26.760Z,32.70
2023-05-17T09:20:02.100Z,32.60
2023-05-17T09:22:41.640Z,32.60
2023-05-17T09:25:29.269Z,32.30
2023-05-17T09:28:10.454Z,32.00
2023-05-17T09:30:47.527Z,32.20
2023-05-17T09:33:28.173Z,32.20
2023-05-17T09:36:06.120Z,32.20
2023-05-17T09:38:47.338Z,32.10
2023-05-17T09:41:22.638Z,32.00
2023-05-17T09:43:57.374Z,32.10
2023-05-17T09:46:32.227Z,32.20
2023-05-17T09:49:09.121Z,32.20
2023-05-17T09:51:49.762Z,31.90
2023-05-17T09:54:25.991Z,32.00
2023-05-17T09:57:08.947Z,32.10
2023-05-17T09:59:46.078Z,32.20
2023-05-17T10:02:38.956Z,32.00
2023-05-17T10:05:19.054Z,31.90
2023-05-17T10:07:57.675Z,31.50
2023-05-17T10:10:35.776Z,31.70
2023-05-17T10:13:13.609Z,31.80
2023-05-17T10:15:48.896Z,31.90
2023-05-17T10:18:23.233Z,32.00
2023-05-17T10:21:02.493Z,31.70
2023-05-17T10:23:40.472Z,31.50
2023-05-17T10:26:18.351Z,31.30
2023-05-17T10:28:55.944Z,31.40
2023-05-17T10:31:30.495Z,31.30
2023-05-17T10:34:12.006Z,31.10
2023-05-17T10:36:50.288Z,31.10
2023-05-17T10:39:25.460Z,31.10
2023-05-17T10:42:15.434Z,31.10
2023-05-17T10:44:52.712Z,31.10
2023-05-17T10:47:28.835Z,30.90
2023-05-17T10:50:03.375Z,30.60
2023-05-17T10:52:38.216Z,30.60
2023-05-17T10:55:14.402Z,30.60
2023-05-17T10:58:03.082Z,30.50
2023-05-17T11:00:42.633Z,30.40
2023-05-17T11:03:22.298Z,30.30
2023-05-17T11:06:25.686Z,30.40
2023-05-17T11:09:21.138Z,30.30
2023-05-17T11:12:11.330Z,30.20
2023-05-17T11:14:56.949Z,30.30
2023-05-17T11:17:33.166Z,30.10
2023-05-17T11:20:35.365Z,29.90
2023-05-17T11:23:14.956Z,29.90
2023-05-17T11:25:54.908Z,29.80
2023-05-17T11:28:31.618Z,29.70
2023-05-17T11:31:10.506Z,29.70
2023-05-17T11:33:49.041Z,29.80
2023-05-17T11:36:26.428Z,29.90
2023-05-17T11:39:16.546Z,29.90
2023-05-17T11:41:58.145Z,29.90
2023-05-17T11:44:43.750Z,29.70
2023-05-17T11:47:21.106Z,29.70
2023-05-17T11:49:59.473Z,29.70
2023-05-17T11:52:35.785Z,29.70
2023-05-17T11:55:13.072Z,29.60
2023-05-17T11:57:51.705Z,29.60
2023-05-17T12:00:34.469Z,29.50
2023-05-17T12:03:27.216Z,29.40
2023-05-17T12:06:14.447Z,29.30
2023-05-17T12:08:51.417Z,29.40
2023-05-17T12:11:30.682Z,29.50
2023-05-17T12:14:07.127Z,29.40
2023-05-17T12:16:45.434Z,29.50
2023-05-17T12:19:32.417Z,29.40
2023-05-17T12:22:14.814Z,29.30
2023-05-17T12:24:52.958Z,29.30
2023-05-17T12:27:36.888Z,29.20
2023-05-17T12:30:24.832Z,29.30
2023-05-17T12:33:03.419Z,29.40
2023-05-17T12:35:39.828Z,29.30
2023-05-17T12:38:22.258Z,29.30
2023-05-17T12:41:01.053Z,29.40
2023-05-17T12:43:41.067Z,29.30
2023-05-17T12:46:19.419Z,29.30
2023-05-17T12:48:59.376Z,29.30
2023-05-17T12:51:45.650Z,29.30
2023-05-17T12:54:33.539Z,29.30
2023-05-17T12:57:22.326Z,29.30
2023-05-17T13:00:04.721Z,29.30
2023-05-17T13:02:44.317Z,29.30
2023-05-17T13:05:23.148Z,29.30
2023-05-17T13:08:01.307Z,29.20
2023-05-17T13:10:35.256Z,29.20
2023-05-17T13:13:13.440Z,29.20
2023-05-17T13:15:53.946Z,29.20
2023-05-17T13:18:31.407Z,29.10
2023-05-17T13:21:14.449Z,29.20
2023-05-17T13:24:36.683Z,29.10
2023-05-17T13:27:30.043Z,29.10
2023-05-17T13:30:10.886Z,29.10
2023-05-17T13:32:45.557Z,29.10
2023-05-17T13:35:22.305Z,29.00
2023-05-17T13:37:59.591Z,29.00
2023-05-17T13:40:37.620Z,28.90
2023-05-17T13:43:12.600Z,28.90
2023-05-17T13:45:52.887Z,28.90
2023-05-17T13:48:31.415Z,28.90
2023-05-17T13:51:16.926Z,28.90
2023-05-17T13:53:51.915Z,28.90
2023-05-17T13:56:31.141Z,28.90
2023-05-17T13:59:05.324Z,28.90
2023-05-17T14:01:40.462Z,28.80
2023-05-17T14:04:15.363Z,28.80
2023-05-17T14:06:52.382Z,28.70
2023-05-17T14:09:34.245Z,28.70
2023-05-17T14:12:14.291Z,28.60
2023-05-17T14:14:52.719Z,28.70
2023-05-17T14:17:28.646Z,28.70
2023-05-17T14:20:01.789Z,28.60
2023-05-17T14:22:34.946Z,28.60
2023-05-17T14:25:14.277Z,28.60
2023-05-17T14:27:53.753Z,28.60
2023-05-17T14:30:30.789Z,28.60
2023-05-17T14:33:06.610Z,28.50
2023-05-17T14:35:40.619Z,28.40
2023-05-17T14:38:17.631Z,28.40
2023-05-17T14:40:52.814Z,28.30
2023-05-17T14:43:31.632Z,28.10
2023-05-17T14:46:06.488Z,28.10
2023-05-17T14:48:50.199Z,27.90
2023-05-17T14:51:35.786Z,27.90
2023-05-17T14:54:12.279Z,27.90
2023-05-17T14:56:51.159Z,27.90
2023-05-17T14:59:29.435Z,27.90
2023-05-17T15:02:07.390Z,27.90
2023-05-17T15:04:43.288Z,27.90
2023-05-17T15:07:18.378Z,27.60
2023-05-17T15:09:51.674Z,27.70
2023-05-17T15:12:25.426Z,27.70
2023-05-17T15:15:04.135Z,27.60
2023-05-17T15:17:39.612Z,27.60
2023-05-17T15:20:14.467Z,27.30
2023-05-17T15:22:50.276Z,27.30
2023-05-17T15:25:28.838Z,27.10
2023-05-17T15:28:05.844Z,26.90
2023-05-17T15:30:44.571Z,26.70
2023-05-17T15:33:22.193Z,26.50
2023-05-17T15:35:55.996Z,26.40
2023-05-17T15:38:38.640Z,26.20
2023-05-17T15:41:20.568Z,26.30
2023-05-17T15:43:56.007Z,26.10
2023-05-17T15:46:35.419Z,26.10
2023-05-17T15:49:13.048Z,26.20
2023-05-17T15:51:53.011Z,26.20
2023-05-17T15:54:31.165Z,26.30
2023-05-17T15:57:09.927Z,26.30
2023-05-17T15:59:49.694Z,26.30
2023-05-17T16:02:32.364Z,26.40
2023-05-17T16:05:07.622Z,26.40
2023-05-17T16:07:41.519Z,26.20
2023-05-17T16:10:21.777Z,26.20
2023-05-17T16:12:55.664Z,25.90
2023-05-17T16:15:32.526Z,25.70
2023-05-17T16:18:13.201Z,25.80
2023-05-17T16:20:48.415Z,25.60
2023-05-17T16:23:24.328Z,25.40
2023-05-17T16:25:58.862Z,25.30
2023-05-17T16:28:34.262Z,25.20
2023-05-17T16:31:14.284Z,25.20
2023-05-17T16:33:56.646Z,25.20
2023-05-17T16:36:31.567Z,25.10
2023-05-17T16:39:08.770Z,24.90
2023-05-17T16:41:42.479Z,24.80
2023-05-17T16:44:18.115Z,24.60
2023-05-17T16:46:54.428Z,24.60
2023-05-17T16:49:35.505Z,24.50
2023-05-17T16:52:10.534Z,24.60
2023-05-17T16:54:47.353Z,24.40
2023-05-17T16:57:22.908Z,24.30
2023-05-17T17:00:01.534Z,24.50
2023-05-17T17:02:37.641Z,24.50
2023-05-17T17:05:13.987Z,24.40
2023-05-17T17:07:48.955Z,24.40
2023-05-17T17:10:23.144Z,24.40
2023-05-17T17:12:56.675Z,24.40
2023-05-17T17:15:31.646Z,24.50
2023-05-17T17:18:06.318Z,24.40
2023-05-17T17:20:47.397Z,24.20
2023-05-17T17:23:23.585Z,24.10
2023-05-17T17:26:03.021Z,24.10
2023-05-17T17:28:39.018Z,24.10
2023-05-17T17:31:13.356Z,23.90
2023-05-17T17:33:48.753Z,23.70
2023-05-17T17:36:27.732Z,23.50
2023-05-17T17:39:09.049Z,23.60
2023-05-17T17:41:43.173Z,23.70
2023-05-17T17:44:16.593Z,23.60
2023-05-17T17:46:50.089Z,23.70
2023-05-17T17:49:25.463Z,23.80
2023-05-17T17:52:04.334Z,23.70
2023-05-17T17:54:45.928Z,23.90
2023-05-17T17:57:25.855Z,24.00
2023-05-17T18:00:01.014Z,24.00
2023-05-17T18:02:35.923Z,23.90
2023-05-17T18:05:12.226Z,23.90
2023-05-17T18:07:48.017Z,23.90
2023-05-17T18:10:21.337Z,23.70
2023-05-17T18:12:54.958Z,23.80
2023-05-17T18:15:29.562Z,23.80
2023-05-17T18:18:04.865Z,23.90
2023-05-17T18:20:40.530Z,24.00
2023-05-17T18:23:16.653Z,24.10
2023-05-17T18:25:52.341Z,24.00
2023-05-17T18:28:38.073Z,24.00
2023-05-17T18:31:16.739Z,24.00
2023-05-17T18:33:56.324Z,24.10
2023-05-17T18:36:32.239Z,24.00
2023-05-17T18:39:07.629Z,24.10
2023-05-17T18:41:42.351Z,24.20
2023-05-17T18:44:18.609Z,24.10
2023-05-17T18:46:53.903Z,24.10
2023-05-17T18:49:29.649Z,24.10
2023-05-17T18:52:04.073Z,24.10
2023-05-17T18:54:40.585Z,24.00
2023-05-17T18:57:18.439Z,24.00
2023-05-17T18:59:56.062Z,24.00
2023-05-17T19:02:29.982Z,24.00
2023-05-17T19:05:03.614Z,24.10
2023-05-17T19:07:36.791Z,24.10
2023-05-17T19:10:14.648Z,24.10
2023-05-17T19:12:48.295Z,24.10
2023-05-17T19:15:21.986Z,24.10
2023-05-17T19:17:57.219Z,24.10
2023-05-17T19:20:33.594Z,24.00
2023-05-17T19:23:08.342Z,24.10
2023-05-17T19:25:44.992Z,24.10
2023-05-17T19:28:19.598Z,24.00
2023-05-17T19:30:55.602Z,23.90
2023-05-17T19:33:29.154Z,23.90
2023-05-17T19:36:02.270Z,23.90
2023-05-17T19:38:35.593Z,23.80
2023-05-17T19:41:11.178Z,23.90
2023-05-17T19:43:55.191Z,23.70
2023-05-17T19:46:30.238Z,23.70
2023-05-17T19:49:04.106Z,23.70
2023-05-17T19:51:37.049Z,23.70
2023-05-17T19:54:10.282Z,23.70
2023-05-17T19:56:48.562Z,23.70
2023-05-17T19:59:22.227Z,23.60
2023-05-17T20:01:56.100Z,23.70
2023-05-17T20:04:32.549Z,23.60
2023-05-17T20:07:08.658Z,23.70
2023-05-17T20:09:45.782Z,23.70
2023-05-17T20:12:23.671Z,23.80
2023-05-17T20:14:57.803Z,23.90
2023-05-17T20:17:32.477Z,23.80
2023-05-17T20:20:09.809Z,23.80
2023-05-17T20:22:45.778Z,23.80
2023-05-17T20:25:20.033Z,23.80
2023-05-17T20:28:21.948Z,23.80
2023-05-17T20:31:00.932Z,23.80
2023-05-17T20:33:37.625Z,23.80
2023-05-17T20:36:13.612Z,23.80
2023-05-17T20:38:50.268Z,23.90
2023-05-17T20:41:29.754Z,23.90
2023-05-17T20:44:04.871Z,23.90
2023-05-17T20:46:43.817Z,23.90
2023-05-17T20:49:18.333Z,23.90
2023-05-17T20:51:52.820Z,23.90
2023-05-17T20:54:29.556Z,23.90
2023-05-17T20:57:08.467Z,24.00
2023-05-17T20:59:50.973Z,24.00
2023-05-17T21:02:35.592Z,24.00
2023-05-17T21:05:23.433Z,24.00
2023-05-17T21:08:02.004Z,23.90
2023-05-17T21:10:45.800Z,24.10
2023-05-17T21:13:22.948Z,24.00
2023-05-17T21:15:58.294Z,24.10
2023-05-17T21:18:46.869Z,24.00
2023-05-17T21:21:21.167Z,24.10
2023-05-17T21:23:54.912Z,24.10
2023-05-17T21:26:29.884Z,24.10
2023-05-17T21:29:06.244Z,24.00
2023-05-17T21:31:41.521Z,24.00
2023-05-17T21:34:21.250Z,23.90
2023-05-17T21:36:56.239Z,23.80
2023-05-17T21:39:30.402Z,23.70
2023-05-17T21:42:04.576Z,23.70
2023-05-17T21:44:39.088Z,23.70
2023-05-17T21:47:15.071Z,23.80
2023-05-17T21:49:54.219Z,23.70
2023-05-17T21:52:27.973Z,23.60
2023-05-17T21:55:02.132Z,23.50
2023-05-17T21:57:38.358Z,23.60
2023-05-17T22:00:14.989Z,23.60
2023-05-17T22:02:52.151Z,23.30
2023-05-17T22:05:32.747Z,23.30
2023-05-17T22:08:06.875Z,23.40
2023-05-17T22:10:51.355Z,23.40
2023-05-17T22:13:27.945Z,23.30
2023-05-17T22:16:01.816Z,23.00
2023-05-17T22:18:37.414Z,23.30
2023-05-17T22:21:15.922Z,23.50
2023-05-17T22:23:49.549Z,23.70
2023-05-17T22:26:23.974Z,23.70
2023-05-17T22:29:09.042Z,23.70
2023-05-17T22:31:46.139Z,23.60
2023-05-17T22:34:24.854Z,23.70
2023-05-17T22:37:04.915Z,23.80
2023-05-17T22:39:38.769Z,23.80
2023-05-17T22:42:16.317Z,23.90
2023-05-17T22:44:53.827Z,23.90
2023-05-17T22:47:28.331Z,23.90
2023-05-17T22:50:06.003Z,23.80
2023-05-17T22:52:44.577Z,23.80
2023-05-17T22:55:21.232Z,23.80
2023-05-17T22:57:55.655Z,23.90
2023-05-17T23:00:30.796Z,23.80
2023-05-17T23:03:08.510Z,24.00
2023-05-17T23:05:43.613Z,23.70
2023-05-17T23:08:23.530Z,23.40
2023-05-17T23:11:02.597Z,23.70
2023-05-17T23:13:37.846Z,23.60
2023-05-17T23:16:19.902Z,23.90
2023-05-17T23:18:54.602Z,24.00
2023-05-17T23:21:28.586Z,24.10
2023-05-17T23:24:06.879Z,24.10
2023-05-17T23:26:41.453Z,24.00
2023-05-17T23:29:17.585Z,23.70
2023-05-17T23:31:52.465Z,23.60
2023-05-17T23:34:26.093Z,23.70
2023-05-17T23:37:02.069Z,23.70
2023-05-17T23:39:41.700Z,23.80
2023-05-17T23:42:16.072Z,23.90
2023-05-17T23:44:50.463Z,23.90
2023-05-17T23:47:29.103Z,23.80
2023-05-17T23:50:04.541Z,23.80
2023-05-17T23:52:42.604Z,23.80
2023-05-17T23:55:22.724Z,23.70
2023-05-17T23:58:01.070Z,23.60
